Time;durP1;ratioP1;P1;durP2;ratioP2;P2;SDS_P1;SDS_P2;PMS_P1;PMS_P2;Temp;Humidity;BMP_temperature;BMP_pressure;BME280_temperature;BME280_humidity;BME280_pressure;Samples;Min_cycle;Max_cycle;Signal;HPM_P1;HPM_P2
2023/10/03 00:01:38;;;;;;;50.85;29.73;;;17.10;99.90;;;;;;5063457;28;20071;-56
2023/10/03 00:04:10;;;;;;;59.15;30.30;;;17.00;99.90;;;;;;5062118;28;20048;-57
2023/10/03 00:06:37;;;;;;;50.20;28.33;;;17.10;99.90;;;;;;5059490;28;20036;-56
2023/10/03 00:09:02;;;;;;;52.50;29.85;;;17.00;99.90;;;;;;5063811;28;20379;-55
2023/10/03 00:11:29;;;;;;;54.53;30.70;;;17.00;99.90;;;;;;5066624;28;20102;-55
2023/10/03 00:13:54;;;;;;;48.63;29.73;;;17.00;99.90;;;;;;5066100;28;20467;-57
2023/10/03 00:16:21;;;;;;;55.55;28.70;;;17.00;99.90;;;;;;5063729;28;20403;-57
2023/10/03 00:18:47;;;;;;;52.85;29.13;;;17.00;99.90;;;;;;5066256;28;20047;-55
2023/10/03 00:21:13;;;;;;;53.53;28.27;;;17.00;99.90;;;;;;5063997;28;20041;-57
2023/10/03 00:23:38;;;;;;;49.78;27.58;;;17.00;99.90;;;;;;5066775;28;20479;-58
2023/10/03 00:26:07;;;;;;;47.75;26.75;;;17.00;99.90;;;;;;5067406;28;20048;-58
2023/10/03 00:28:33;;;;;;;48.35;25.48;;;17.00;99.90;;;;;;5070926;28;20049;-58
2023/10/03 00:31:00;;;;;;;49.38;26.25;;;17.10;99.90;;;;;;5062412;28;20033;-56
2023/10/03 00:33:26;;;;;;;44.05;26.05;;;17.10;99.90;;;;;;5066667;28;20051;-56
2023/10/03 00:35:52;;;;;;;46.03;25.25;;;17.00;99.90;;;;;;5065447;28;20345;-55
2023/10/03 00:38:18;;;;;;;45.83;26.48;;;17.00;99.90;;;;;;5063571;28;20071;-56
2023/10/03 00:40:55;;;;;;;44.65;25.35;;;17.00;99.90;;;;;;5067267;28;20032;-56
2023/10/03 00:43:21;;;;;;;44.67;25.77;;;16.90;99.90;;;;;;5066065;28;20048;-56
2023/10/03 00:45:48;;;;;;;47.05;25.48;;;16.90;99.90;;;;;;5067483;28;20033;-55
2023/10/03 00:48:15;;;;;;;47.83;25.77;;;16.80;99.90;;;;;;5066637;28;20075;-52
2023/10/03 00:50:42;;;;;;;45.53;26.27;;;16.80;99.90;;;;;;5066455;28;20116;-56
2023/10/03 00:53:08;;;;;;;45.38;24.80;;;16.80;99.90;;;;;;5064540;28;20048;-54
2023/10/03 00:55:39;;;;;;;50.15;24.92;;;16.80;99.90;;;;;;5067422;28;20041;-54
2023/10/03 01:00:39;;;;;;;46.75;25.20;;;16.80;99.90;;;;;;5064815;28;20072;-54
2023/10/03 01:03:09;;;;;;;48.63;27.15;;;16.80;99.90;;;;;;5060905;28;20482;-56
2023/10/03 01:05:36;;;;;;;45.15;27.70;;;16.70;99.90;;;;;;5063994;28;20036;-54
2023/10/03 01:08:04;;;;;;;46.28;27.33;;;16.70;99.90;;;;;;5065319;28;20045;-56
2023/10/03 01:10:32;;;;;;;52.13;27.52;;;16.60;99.90;;;;;;5066369;28;20423;-57
2023/10/03 01:13:07;;;;;;;50.38;27.98;;;16.60;99.90;;;;;;5067481;28;20495;-57
2023/10/03 01:15:33;;;;;;;51.47;27.70;;;16.60;99.90;;;;;;5066899;28;20520;-56
2023/10/03 01:18:00;;;;;;;50.03;27.98;;;16.60;99.90;;;;;;5061941;28;20406;-57
2023/10/03 01:20:41;;;;;;;49.47;27.20;;;16.60;99.90;;;;;;5063158;28;20037;-56
2023/10/03 01:23:10;;;;;;;51.45;26.52;;;16.60;99.90;;;;;;5060366;28;20415;-57
2023/10/03 01:25:42;;;;;;;49.50;26.83;;;16.70;99.90;;;;;;5066528;28;20089;-57
2023/10/03 01:28:11;;;;;;;45.65;25.35;;;16.70;99.90;;;;;;5062472;28;20041;-57
2023/10/03 01:30:40;;;;;;;47.58;25.70;;;16.70;99.90;;;;;;5060164;28;20055;-57
2023/10/03 01:33:07;;;;;;;53.05;26.83;;;16.70;99.90;;;;;;5066412;28;20111;-57
2023/10/03 01:35:34;;;;;;;46.28;23.95;;;16.80;99.90;;;;;;5058210;28;20041;-56
2023/10/03 01:38:00;;;;;;;41.75;22.65;;;16.80;99.90;;;;;;5062690;28;20445;-56
2023/10/03 01:40:26;;;;;;;41.45;22.42;;;16.90;99.90;;;;;;5065305;28;20432;-55
2023/10/03 01:42:52;;;;;;;41.83;22.90;;;16.90;99.90;;;;;;5068667;28;20086;-55
2023/10/03 01:45:21;;;;;;;45.58;24.77;;;17.00;99.90;;;;;;5067656;28;20047;-56
2023/10/03 01:47:50;;;;;;;40.90;22.52;;;17.00;99.90;;;;;;5067100;28;20550;-57
2023/10/03 01:50:19;;;;;;;41.10;21.83;;;17.10;99.90;;;;;;5064354;28;20578;-55
2023/10/03 01:52:46;;;;;;;45.47;22.35;;;17.20;99.90;;;;;;5064082;28;20542;-53
2023/10/03 01:55:13;;;;;;;44.17;23.00;;;17.30;99.90;;;;;;5066288;28;20040;-58
2023/10/03 01:57:40;;;;;;;45.70;22.15;;;17.40;99.90;;;;;;5060690;28;20079;-53
2023/10/03 02:00:20;;;;;;;42.22;21.65;;;17.40;99.90;;;;;;5060375;28;20047;-57
2023/10/03 02:02:50;;;;;;;40.80;21.25;;;17.50;99.90;;;;;;5063765;28;20045;-55
2023/10/03 02:05:19;;;;;;;40.28;21.13;;;17.60;99.90;;;;;;5065497;28;20028;-55
2023/10/03 02:07:45;;;;;;;41.28;20.70;;;17.60;99.90;;;;;;5061732;28;20107;-58
2023/10/03 02:10:17;;;;;;;40.25;20.50;;;17.70;99.90;;;;;;5065605;28;20036;-57
2023/10/03 02:12:49;;;;;;;43.03;21.45;;;17.70;99.90;;;;;;5063524;28;20040;-57
2023/10/03 02:15:23;;;;;;;40.33;20.80;;;17.80;99.90;;;;;;5066455;28;20495;-58
2023/10/03 02:17:55;;;;;;;41.40;20.42;;;17.80;99.90;;;;;;5059449;28;20040;-55
2023/10/03 02:20:25;;;;;;;43.97;21.52;;;17.80;99.90;;;;;;5066714;28;20039;-58
2023/10/03 02:22:58;;;;;;;41.00;21.38;;;17.90;99.90;;;;;;5063387;28;20111;-57
2023/10/03 02:25:28;;;;;;;39.90;19.95;;;17.90;99.90;;;;;;5066598;28;20033;-56
2023/10/03 02:27:56;;;;;;;39.40;19.35;;;17.90;99.90;;;;;;5062206;28;20055;-55
2023/10/03 02:30:25;;;;;;;44.05;21.02;;;18.00;99.90;;;;;;5061298;28;20428;-56
2023/10/03 02:32:55;;;;;;;35.53;18.67;;;18.00;99.90;;;;;;5059585;28;20573;-57
2023/10/03 02:35:25;;;;;;;40.47;20.10;;;18.00;99.90;;;;;;5064788;28;20596;-57
2023/10/03 02:37:52;;;;;;;36.97;18.30;;;18.10;99.90;;;;;;5066693;28;20317;-58
2023/10/03 02:40:22;;;;;;;37.60;19.13;;;18.10;99.90;;;;;;5055828;28;20309;-57
2023/10/03 02:42:54;;;;;;;32.00;17.92;;;18.10;99.90;;;;;;5064375;28;20036;-58
2023/10/03 02:45:25;;;;;;;39.45;19.25;;;18.20;99.90;;;;;;5065326;28;20032;-57
2023/10/03 02:47:56;;;;;;;38.63;19.65;;;18.30;99.90;;;;;;5062275;28;20041;-58
2023/10/03 02:50:28;;;;;;;38.53;18.73;;;18.30;99.90;;;;;;5065178;28;20128;-58
2023/10/03 02:52:57;;;;;;;34.97;18.33;;;18.30;99.90;;;;;;5065726;28;20082;-58
2023/10/03 02:55:23;;;;;;;39.40;19.17;;;18.40;99.90;;;;;;5062833;28;20127;-57
2023/10/03 02:57:49;;;;;;;36.40;17.70;;;18.40;99.90;;;;;;5063058;28;20107;-57
2023/10/03 03:00:15;;;;;;;38.78;19.55;;;18.40;99.90;;;;;;5060113;28;20087;-58
2023/10/03 03:02:42;;;;;;;43.20;19.38;;;18.40;99.90;;;;;;5064985;28;20033;-56
2023/10/03 03:05:11;;;;;;;34.88;17.92;;;18.40;99.90;;;;;;5068673;28;20051;-58
2023/10/03 03:07:37;;;;;;;36.45;18.52;;;18.40;99.90;;;;;;5062385;28;20036;-55
2023/10/03 03:10:03;;;;;;;41.38;20.08;;;18.40;99.90;;;;;;5061944;28;20739;-57
2023/10/03 03:12:29;;;;;;;38.40;20.05;;;18.40;99.90;;;;;;5066372;28;20449;-57
2023/10/03 03:14:55;;;;;;;37.30;19.35;;;18.40;99.90;;;;;;5064019;28;20046;-56
2023/10/03 03:17:21;;;;;;;40.45;18.92;;;18.40;99.90;;;;;;5065838;28;20035;-57
2023/10/03 03:19:47;;;;;;;40.53;18.33;;;18.40;99.90;;;;;;5063587;28;20040;-58
2023/10/03 03:22:21;;;;;;;37.50;20.13;;;18.40;99.90;;;;;;5060754;28;20042;-55
2023/10/03 03:24:51;;;;;;;40.65;20.35;;;18.40;99.90;;;;;;5060743;28;20045;-54
2023/10/03 03:27:18;;;;;;;38.28;19.92;;;18.40;99.90;;;;;;5064033;28;20404;-58
2023/10/03 03:32:45;;;;;;;36.80;19.15;;;18.40;99.90;;;;;;5019516;28;20041;-57
2023/10/03 03:35:11;;;;;;;37.63;19.10;;;18.50;99.90;;;;;;5052784;28;20056;-58
2023/10/03 03:37:37;;;;;;;35.80;18.33;;;18.50;99.90;;;;;;5063716;28;20056;-57
2023/10/03 03:40:12;;;;;;;37.05;19.70;;;18.50;99.90;;;;;;5063751;28;20055;-57
2023/10/03 03:42:38;;;;;;;39.42;18.55;;;18.50;99.90;;;;;;5059925;28;20414;-57
2023/10/03 03:45:04;;;;;;;39.75;19.33;;;18.60;99.90;;;;;;5063059;28;20043;-56
2023/10/03 03:47:33;;;;;;;;;;;18.60;99.90;;;;;;5058233;28;20048;-56
2023/10/03 03:50:01;;;;;;;33.35;17.63;;;18.60;99.90;;;;;;5065177;28;20402;-58
2023/10/03 03:52:32;;;;;;;36.75;18.63;;;18.60;99.90;;;;;;5065822;28;20025;-58
2023/10/03 03:55:03;;;;;;;36.38;18.73;;;18.60;99.90;;;;;;5059922;28;20064;-58
2023/10/03 03:57:29;;;;;;;35.28;17.92;;;18.60;99.90;;;;;;5062708;28;20507;-53
2023/10/03 03:59:56;;;;;;;;;;;18.60;99.90;;;;;;5061270;28;20052;-57
2023/10/03 04:02:22;;;;;;;36.10;18.63;;;18.60;99.90;;;;;;5065856;28;19958;-57
2023/10/03 04:04:48;;;;;;;37.00;18.33;;;18.60;99.90;;;;;;5063413;28;20407;-57
2023/10/03 04:07:13;;;;;;;39.45;18.90;;;18.60;99.90;;;;;;5066743;28;20047;-57
2023/10/03 04:09:39;;;;;;;32.38;18.35;;;18.60;99.90;;;;;;5052322;28;20119;-58
2023/10/03 04:12:05;;;;;;;37.50;18.25;;;18.60;99.90;;;;;;5059693;28;20037;-58
2023/10/03 04:14:31;;;;;;;32.28;17.30;;;18.60;99.90;;;;;;5055673;28;20037;-57
2023/10/03 04:16:56;;;;;;;40.17;18.15;;;18.60;99.90;;;;;;5065534;28;20037;-57
2023/10/03 04:19:23;;;;;;;35.70;18.27;;;18.50;99.90;;;;;;5063068;28;20041;-58
2023/10/03 04:21:48;;;;;;;35.42;18.52;;;18.50;99.90;;;;;;5065630;28;20043;-58
2023/10/03 04:24:16;;;;;;;36.88;17.98;;;18.50;99.90;;;;;;5062671;28;20107;-57
2023/10/03 04:26:42;;;;;;;35.80;16.98;;;18.50;99.90;;;;;;5055543;28;20411;-57
2023/10/03 04:29:11;;;;;;;36.55;17.70;;;18.50;99.90;;;;;;5061186;28;20044;-57
2023/10/03 04:31:37;;;;;;;35.80;17.75;;;18.50;99.90;;;;;;5052766;28;20041;-56
2023/10/03 04:34:03;;;;;;;33.50;17.45;;;18.60;99.90;;;;;;5065335;28;20048;-58
2023/10/03 04:36:29;;;;;;;36.95;18.25;;;18.60;99.90;;;;;;5062486;28;20032;-57
2023/10/03 04:38:54;;;;;;;;;;;18.60;99.90;;;;;;5064730;28;20202;-58
2023/10/03 04:41:20;;;;;;;33.35;17.40;;;18.60;99.90;;;;;;5064743;28;20383;-56
2023/10/03 04:43:46;;;;;;;35.13;18.40;;;18.50;99.90;;;;;;5072023;28;20182;-56
2023/10/03 04:46:13;;;;;;;35.70;18.45;;;18.50;99.90;;;;;;5060632;28;20193;-57
2023/10/03 04:48:38;;;;;;;36.20;18.70;;;18.50;99.90;;;;;;5056134;28;20041;-56
2023/10/03 04:51:04;;;;;;;37.70;18.20;;;18.50;99.90;;;;;;5062048;28;20398;-56
2023/10/03 04:53:30;;;;;;;40.75;17.67;;;18.50;99.90;;;;;;5065823;28;20090;-56
2023/10/03 04:55:56;;;;;;;36.58;17.15;;;18.50;99.90;;;;;;5063406;28;20461;-57
2023/10/03 04:58:22;;;;;;;33.50;15.48;;;18.40;99.90;;;;;;5062819;28;20071;-57
2023/10/03 05:00:47;;;;;;;42.20;17.65;;;18.40;99.90;;;;;;5067329;28;20040;-57
2023/10/03 05:03:13;;;;;;;33.00;16.58;;;18.40;99.90;;;;;;5069094;28;20589;-56
2023/10/03 05:05:39;;;;;;;32.90;16.13;;;18.40;99.90;;;;;;5065942;28;20525;-57
2023/10/03 05:08:05;;;;;;;31.38;16.67;;;18.40;99.90;;;;;;5067673;28;20075;-57
2023/10/03 05:10:33;;;;;;;33.45;17.38;;;18.40;99.90;;;;;;5068997;28;20028;-58
2023/10/03 05:12:59;;;;;;;29.10;15.75;;;18.40;99.90;;;;;;5069689;28;20101;-57
2023/10/03 05:15:28;;;;;;;33.45;16.75;;;18.40;99.90;;;;;;5067894;28;20188;-57
2023/10/03 05:17:54;;;;;;;36.65;17.05;;;18.40;99.90;;;;;;5068650;28;20049;-57
2023/10/03 05:20:20;;;;;;;;;;;18.40;99.90;;;;;;5067917;28;20111;-56
2023/10/03 05:22:45;;;;;;;32.22;16.05;;;18.40;99.90;;;;;;5063253;28;20087;-57
2023/10/03 05:25:12;;;;;;;33.35;15.63;;;18.50;99.90;;;;;;5066517;28;20040;-58
2023/10/03 05:27:41;;;;;;;25.75;14.80;;;18.60;99.90;;;;;;5059694;28;20044;-57
2023/10/03 05:30:08;;;;;;;31.23;14.75;;;18.60;99.90;;;;;;5058458;28;20043;-58
2023/10/03 05:32:38;;;;;;;26.85;14.18;;;18.70;99.90;;;;;;5061304;28;20529;-58
2023/10/03 05:35:06;;;;;;;28.15;13.57;;;18.80;99.90;;;;;;5064114;28;20043;-58
2023/10/03 05:37:35;;;;;;;32.42;14.80;;;18.80;99.90;;;;;;5065054;28;20120;-58
2023/10/03 05:40:11;;;;;;;23.98;13.23;;;18.80;99.90;;;;;;5067080;28;20047;-57
2023/10/03 05:42:41;;;;;;;25.13;13.07;;;18.90;99.90;;;;;;5065518;28;20047;-58
2023/10/03 05:45:12;;;;;;;28.10;14.02;;;18.90;99.90;;;;;;5069355;28;20076;-58
2023/10/03 05:47:45;;;;;;;34.65;13.30;;;19.00;99.90;;;;;;5063250;28;20045;-58
2023/10/03 05:50:21;;;;;;;28.35;13.27;;;19.00;99.90;;;;;;5057096;28;20511;-58
2023/10/03 05:52:47;;;;;;;24.60;11.55;;;19.00;99.90;;;;;;5057673;28;20028;-57
2023/10/03 05:55:13;;;;;;;34.25;13.65;;;19.00;99.90;;;;;;5063750;28;20044;-57
2023/10/03 05:57:42;;;;;;;22.92;11.85;;;19.00;99.90;;;;;;5063265;28;20091;-58
2023/10/03 06:00:10;;;;;;;26.90;11.85;;;19.00;99.90;;;;;;5062288;28;20044;-58
2023/10/03 06:02:41;;;;;;;23.55;11.50;;;19.00;99.90;;;;;;5059466;28;20033;-58
2023/10/03 06:05:07;;;;;;;31.00;11.23;;;19.00;99.90;;;;;;5066793;28;20042;-58
2023/10/03 06:07:33;;;;;;;;;;;19.10;99.90;;;;;;5066303;28;20072;-57
2023/10/03 06:09:59;;;;;;;22.67;10.95;;;19.00;99.90;;;;;;5069860;28;19963;-57
2023/10/03 06:12:24;;;;;;;25.55;9.65;;;19.10;99.90;;;;;;5055799;28;20037;-57
2023/10/03 06:14:51;;;;;;;18.77;9.85;;;19.10;99.90;;;;;;5059958;28;20041;-58
2023/10/03 06:17:18;;;;;;;15.93;8.10;;;19.00;99.90;;;;;;5066859;28;20495;-58
2023/10/03 06:19:44;;;;;;;22.13;9.25;;;19.10;99.90;;;;;;5060927;28;20064;-58
2023/10/03 06:22:12;;;;;;;16.55;7.97;;;19.10;99.90;;;;;;5056862;28;20108;-57
2023/10/03 06:24:38;;;;;;;19.00;8.15;;;19.10;99.90;;;;;;5068684;28;20113;-57
2023/10/03 06:27:08;;;;;;;23.08;7.85;;;19.10;99.90;;;;;;5064398;28;20036;-58
2023/10/03 06:29:34;;;;;;;26.15;8.27;;;19.10;99.90;;;;;;5064087;28;20063;-56
2023/10/03 06:32:00;;;;;;;20.38;8.70;;;19.00;99.90;;;;;;5060580;28;20036;-58
2023/10/03 06:34:26;;;;;;;17.73;6.75;;;19.00;99.90;;;;;;5051214;28;20090;-58
2023/10/03 06:36:52;;;;;;;18.13;6.30;;;19.00;99.90;;;;;;5052678;28;20049;-58
2023/10/03 06:39:18;;;;;;;;;;;19.00;99.90;;;;;;5045079;28;20627;-58
2023/10/03 06:41:44;;;;;;;16.15;6.43;;;19.00;99.90;;;;;;5055910;28;19996;-58
2023/10/03 06:44:09;;;;;;;;;;;19.00;99.90;;;;;;5052385;28;20041;-58
2023/10/03 06:46:35;;;;;;;13.55;6.13;;;19.00;99.90;;;;;;5049522;28;19917;-58
2023/10/03 06:49:01;;;;;;;11.77;6.28;;;19.00;99.90;;;;;;5057334;28;20424;-55
2023/10/03 06:51:27;;;;;;;15.38;5.80;;;19.00;99.90;;;;;;5065698;28;20032;-58
2023/10/03 06:53:53;;;;;;;15.88;5.50;;;19.00;99.90;;;;;;5067307;28;20048;-58
2023/10/03 06:56:20;;;;;;;16.90;5.55;;;18.90;99.90;;;;;;5058688;28;20029;-56
2023/10/03 06:58:49;;;;;;;21.50;7.57;;;19.00;99.90;;;;;;5054980;28;20073;-58
2023/10/03 07:01:15;;;;;;;13.05;6.28;;;19.00;99.90;;;;;;5053793;28;20033;-57
2023/10/03 07:03:41;;;;;;;13.95;6.25;;;19.00;99.90;;;;;;5059270;28;20080;-59
2023/10/03 07:06:07;;;;;;;15.63;4.70;;;18.90;99.90;;;;;;5032286;28;20061;-56
2023/10/03 07:08:37;;;;;;;10.80;3.83;;;19.00;99.90;;;;;;5040236;28;20509;-56
2023/10/03 07:11:10;;;;;;;19.00;5.30;;;18.90;99.90;;;;;;5041538;28;20048;-55
2023/10/03 07:13:36;;;;;;;12.10;4.25;;;19.00;99.90;;;;;;5041342;28;20037;-57
2023/10/03 07:16:02;;;;;;;8.07;4.32;;;19.00;99.90;;;;;;5045649;28;20059;-57
2023/10/03 07:18:27;;;;;;;;;;;19.00;99.90;;;;;;5047287;28;20059;-58
2023/10/03 07:20:55;;;;;;;8.30;4.00;;;19.00;99.90;;;;;;5044719;28;19920;-57
2023/10/03 07:23:21;;;;;;;14.70;4.53;;;19.00;99.90;;;;;;5044774;28;20036;-57
2023/10/03 07:25:47;;;;;;;12.35;4.13;;;19.00;99.90;;;;;;5049091;28;20044;-59
2023/10/03 07:28:12;;;;;;;15.82;5.00;;;19.00;99.90;;;;;;5048656;28;20045;-56
2023/10/03 07:30:38;;;;;;;;;;;18.90;99.90;;;;;;5039570;28;20102;-58
2023/10/03 07:33:05;;;;;;;16.10;4.95;;;19.00;99.90;;;;;;5045306;28;20408;-57
2023/10/03 07:35:33;;;;;;;12.95;5.05;;;19.00;99.90;;;;;;5044808;28;20044;-56
2023/10/03 07:37:58;;;;;;;12.07;5.38;;;19.00;99.90;;;;;;5046282;28;20446;-56
2023/10/03 07:40:27;;;;;;;17.25;4.68;;;19.00;99.90;;;;;;5047483;28;20029;-57
2023/10/03 07:42:53;;;;;;;13.60;4.80;;;19.00;99.90;;;;;;5051325;28;20067;-58
2023/10/03 07:45:18;;;;;;;11.18;5.38;;;19.00;99.90;;;;;;5050595;28;20488;-57
2023/10/03 07:47:45;;;;;;;10.23;5.07;;;18.90;99.90;;;;;;5048724;28;20040;-57
2023/10/03 07:50:11;;;;;;;;;;;18.90;99.90;;;;;;5050400;28;20155;-58
2023/10/03 07:52:37;;;;;;;10.90;4.72;;;18.90;99.90;;;;;;5049351;28;19916;-58
2023/10/03 07:55:05;;;;;;;9.90;4.85;;;18.80;99.90;;;;;;5049846;28;20364;-59
2023/10/03 07:57:31;;;;;;;10.95;4.43;;;18.80;99.90;;;;;;5048357;28;20059;-58
2023/10/03 07:59:57;;;;;;;10.82;4.45;;;18.80;99.90;;;;;;5047699;28;20041;-59
2023/10/03 08:02:32;;;;;;;10.50;4.88;;;18.80;99.90;;;;;;5050101;28;20049;-58
2023/10/03 08:05:00;;;;;;;14.38;4.43;;;18.70;99.90;;;;;;5050550;28;20119;-58
2023/10/03 08:07:29;;;;;;;8.82;3.67;;;18.70;99.90;;;;;;5048166;28;20040;-57
2023/10/03 08:09:56;;;;;;;13.73;4.10;;;18.70;99.90;;;;;;5043537;28;20352;-58
2023/10/03 08:12:24;;;;;;;14.55;5.00;;;18.60;99.90;;;;;;5046664;28;20039;-58
2023/10/03 08:14:54;;;;;;;11.00;4.05;;;18.60;99.90;;;;;;5047014;28;20614;-57
2023/10/03 08:17:20;;;;;;;12.48;3.78;;;18.60;99.90;;;;;;5040283;28;20033;-57
2023/10/03 08:19:49;;;;;;;10.45;3.85;;;18.60;99.90;;;;;;5043435;28;20124;-58
2023/10/03 08:22:15;;;;;;;12.70;3.92;;;18.50;99.90;;;;;;5043025;28;20069;-56
2023/10/03 08:24:43;;;;;;;12.07;4.75;;;18.50;99.90;;;;;;5050147;28;20459;-59
2023/10/03 08:27:19;;;;;;;9.25;4.25;;;18.50;99.90;;;;;;5039080;28;20107;-59
2023/10/03 08:29:50;;;;;;;9.88;3.55;;;18.50;99.90;;;;;;5041668;28;20128;-58
2023/10/03 08:32:17;;;;;;;12.80;3.70;;;18.50;99.90;;;;;;5050461;28;20519;-58
2023/10/03 08:34:44;;;;;;;9.68;3.72;;;18.40;99.90;;;;;;5045763;28;20083;-58
2023/10/03 08:37:18;;;;;;;9.73;4.38;;;18.40;99.90;;;;;;5051034;28;20048;-58
2023/10/03 08:39:46;;;;;;;7.43;4.38;;;18.40;99.90;;;;;;5049413;28;20076;-58
2023/10/03 08:42:19;;;;;;;12.82;3.58;;;18.30;99.90;;;;;;5052126;28;20055;-58
2023/10/03 08:44:52;;;;;;;4.20;2.45;;;18.20;99.90;;;;;;5045097;28;20032;-57
2023/10/03 08:47:22;;;;;;;9.52;2.42;;;18.00;99.90;;;;;;5048188;28;20126;-57
2023/10/03 08:49:56;;;;;;;6.55;2.67;;;17.90;99.90;;;;;;5046305;28;20081;-58
2023/10/03 08:52:39;;;;;;;10.13;2.83;;;17.80;99.90;;;;;;5042811;28;20038;-56
2023/10/03 08:55:07;;;;;;;10.48;3.58;;;17.80;99.90;;;;;;5049504;28;20305;-56
2023/10/03 08:57:35;;;;;;;6.45;2.83;;;17.70;99.90;;;;;;5051675;28;20044;-57
2023/10/03 09:00:10;;;;;;;9.68;3.40;;;17.70;99.90;;;;;;5046703;28;20045;-58
2023/10/03 09:02:47;;;;;;;9.75;3.10;;;17.70;99.90;;;;;;5047388;28;20123;-59
2023/10/03 09:05:20;;;;;;;10.48;3.35;;;17.70;99.90;;;;;;5052612;28;20044;-58
2023/10/03 09:07:47;;;;;;;6.45;2.20;;;17.70;99.90;;;;;;5051243;28;20041;-58
2023/10/03 09:10:24;;;;;;;5.53;1.40;;;17.70;99.90;;;;;;5043553;28;20049;-57
2023/10/03 09:13:04;;;;;;;7.80;1.20;;;17.70;99.90;;;;;;5042927;28;20511;-58
2023/10/03 09:15:38;;;;;;;7.15;1.20;;;17.70;99.90;;;;;;5050159;28;20676;-57
2023/10/03 09:18:10;;;;;;;8.80;1.92;;;17.70;99.90;;;;;;5051642;28;20054;-57
2023/10/03 09:20:36;;;;;;;3.78;0.82;;;17.80;99.90;;;;;;5051979;28;20045;-58
2023/10/03 09:23:05;;;;;;;6.05;0.95;;;17.90;99.90;;;;;;5050407;28;20037;-57
2023/10/03 09:25:32;;;;;;;7.25;1.20;;;17.90;99.90;;;;;;5051701;28;20035;-57
2023/10/03 09:28:08;;;;;;;7.15;1.10;;;17.90;99.90;;;;;;5051457;28;20467;-57
2023/10/03 09:30:40;;;;;;;10.48;1.90;;;18.00;99.90;;;;;;5049850;28;20487;-58
2023/10/03 09:33:17;;;;;;;10.00;0.63;;;18.00;99.90;;;;;;5048931;28;20539;-58
2023/10/03 09:36:02;;;;;;;7.07;1.25;;;17.90;99.90;;;;;;5051482;28;20033;-59
2023/10/03 09:38:42;;;;;;;4.03;0.40;;;17.90;99.90;;;;;;5047782;28;20048;-58
2023/10/03 09:41:08;;;;;;;3.60;0.80;;;17.80;99.90;;;;;;5040226;28;20041;-58
2023/10/03 09:43:35;;;;;;;5.45;0.57;;;17.70;99.90;;;;;;5045529;28;20044;-57
2023/10/03 09:46:01;;;;;;;3.17;0.40;;;17.80;99.90;;;;;;5047761;28;20041;-58
2023/10/03 09:48:27;;;;;;;5.22;0.50;;;17.80;99.90;;;;;;5048057;28;20056;-58
2023/10/03 09:50:53;;;;;;;4.35;0.35;;;17.80;99.90;;;;;;5048734;28;20132;-57
2023/10/03 09:53:27;;;;;;;5.28;0.30;;;17.70;99.90;;;;;;5045426;28;20048;-58
2023/10/03 09:55:56;;;;;;;4.20;0.63;;;17.80;99.90;;;;;;5045351;28;20105;-58
2023/10/03 09:58:25;;;;;;;6.68;0.60;;;17.80;99.90;;;;;;5056373;28;20127;-57
2023/10/03 10:00:55;;;;;;;0.85;0.20;;;17.80;99.90;;;;;;5051336;28;20044;-58
2023/10/03 10:03:37;;;;;;;2.50;0.30;;;17.70;99.90;;;;;;5046351;28;20040;-58
2023/10/03 10:06:12;;;;;;;3.78;0.20;;;17.60;99.90;;;;;;5045614;28;20048;-58
2023/10/03 10:08:47;;;;;;;1.98;0.30;;;17.50;99.90;;;;;;5043705;28;20079;-58
2023/10/03 10:11:13;;;;;;;2.80;0.20;;;17.50;99.90;;;;;;5049403;28;20483;-58
2023/10/03 10:13:59;;;;;;;;;;;17.50;99.90;;;;;;5050275;28;20025;-57
2023/10/03 10:16:28;;;;;;;3.78;0.30;;;17.50;99.90;;;;;;5046299;28;19916;-57
2023/10/03 10:18:54;;;;;;;2.97;0.30;;;17.60;99.90;;;;;;5045973;28;20627;-57
2023/10/03 10:21:20;;;;;;;2.97;0.47;;;17.60;99.90;;;;;;5049225;28;20056;-58
2023/10/03 10:24:20;;;;;;;4.15;0.38;;;17.50;99.90;;;;;;5041388;28;20473;-58
2023/10/03 10:26:49;;;;;;;3.85;0.47;;;17.50;99.90;;;;;;5043789;28;20052;-58
2023/10/03 10:29:24;;;;;;;2.35;0.20;;;17.50;99.90;;;;;;5047753;28;20041;-58
2023/10/03 10:32:00;;;;;;;4.68;0.50;;;17.50;99.90;;;;;;5046776;28;20400;-59
2023/10/03 10:34:29;;;;;;;3.47;0.20;;;17.50;99.90;;;;;;5048731;28;20302;-60
2023/10/03 10:37:15;;;;;;;4.03;0.30;;;17.50;99.90;;;;;;5061447;28;20102;-58
2023/10/03 10:43:04;;;;;;;1.40;0.20;;;17.40;99.90;;;;;;5023965;28;20053;-58
2023/10/03 10:45:37;;;;;;;3.20;0.57;;;17.40;99.90;;;;;;5041553;28;20090;-59
2023/10/03 10:48:04;;;;;;;1.77;0.30;;;17.40;99.90;;;;;;5046256;28;20074;-60
2023/10/03 10:51:03;;;;;;;3.05;0.20;;;17.40;99.90;;;;;;5043047;28;20049;-60
2023/10/03 10:53:39;;;;;;;2.67;0.25;;;17.40;99.90;;;;;;5042859;28;20045;-61
2023/10/03 10:56:10;;;;;;;2.72;0.20;;;17.40;99.90;;;;;;5046950;28;20039;-60
2023/10/03 10:59:07;;;;;;;1.13;0.17;;;17.40;99.90;;;;;;5046412;28;20036;-60
2023/10/03 11:01:39;;;;;;;1.70;0.20;;;17.40;99.90;;;;;;5046326;28;20049;-59
2023/10/03 11:04:06;;;;;;;0.95;0.15;;;17.40;99.90;;;;;;5048978;28;20173;-58
2023/10/03 11:06:32;;;;;;;2.55;0.20;;;17.50;99.90;;;;;;5045893;28;20043;-59
2023/10/03 11:08:57;;;;;;;0.77;0.10;;;17.50;99.90;;;;;;5049209;28;20033;-57
2023/10/03 11:11:35;;;;;;;2.30;0.28;;;17.50;99.90;;;;;;5050799;28;20115;-59
2023/10/03 11:14:01;;;;;;;1.83;0.25;;;17.60;99.90;;;;;;5051652;28;20095;-60
2023/10/03 11:16:27;;;;;;;4.15;0.20;;;17.60;99.90;;;;;;5043628;28;20392;-59
2023/10/03 11:18:54;;;;;;;0.68;0.20;;;17.70;99.90;;;;;;5047052;28;20051;-60
2023/10/03 11:21:22;;;;;;;1.65;0.30;;;17.70;99.90;;;;;;5043547;28;20035;-60
2023/10/03 11:24:10;;;;;;;1.58;0.10;;;17.70;99.90;;;;;;5045443;28;20052;-60
2023/10/03 11:26:49;;;;;;;2.13;0.30;;;17.70;99.90;;;;;;5047523;28;20411;-61
2023/10/03 11:29:37;;;;;;;2.30;0.22;;;17.80;99.90;;;;;;5044435;28;20041;-59
2023/10/03 11:32:03;;;;;;;2.10;0.30;;;17.80;99.90;;;;;;5029151;28;20049;-59
2023/10/03 11:34:33;;;;;;;2.80;0.38;;;17.80;99.90;;;;;;5046079;28;20278;-57
2023/10/03 11:37:00;;;;;;;4.20;0.28;;;17.80;99.90;;;;;;5047808;28;20120;-59
2023/10/03 11:39:27;;;;;;;2.65;0.30;;;17.70;99.90;;;;;;5044482;28;20041;-59
2023/10/03 11:41:52;;;;;;;4.85;0.35;;;17.70;99.90;;;;;;5039592;28;20049;-58
2023/10/03 11:44:19;;;;;;;4.50;0.20;;;17.70;99.90;;;;;;5042165;28;20033;-57
2023/10/03 11:46:46;;;;;;;2.58;0.30;;;17.70;99.90;;;;;;5047085;28;20071;-58
2023/10/03 11:49:13;;;;;;;9.02;0.60;;;17.70;99.90;;;;;;5045293;28;20132;-58
2023/10/03 11:51:42;;;;;;;4.72;0.30;;;17.60;99.90;;;;;;5045689;28;20036;-58
2023/10/03 11:54:08;;;;;;;6.03;0.50;;;17.60;99.90;;;;;;5051262;28;20040;-57
2023/10/03 11:56:41;;;;;;;;;;;17.60;99.90;;;;;;5052906;28;20029;-58
2023/10/03 11:59:07;;;;;;;1.10;0.20;;;17.50;99.90;;;;;;5056061;28;19927;-57
2023/10/03 12:01:33;;;;;;;3.35;0.35;;;17.40;99.90;;;;;;5048666;28;20507;-59
2023/10/03 12:03:59;;;;;;;1.45;0.25;;;17.30;99.90;;;;;;5052985;28;20148;-60
2023/10/03 12:06:25;;;;;;;2.60;0.32;;;17.30;99.90;;;;;;5048661;28;20056;-60
2023/10/03 12:08:50;;;;;;;4.28;0.30;;;17.20;99.90;;;;;;5047023;28;20041;-60
2023/10/03 12:11:16;;;;;;;2.15;0.40;;;17.10;99.90;;;;;;5048670;28;20033;-60
2023/10/03 12:13:42;;;;;;;7.28;0.40;;;17.00;99.90;;;;;;5045610;28;20029;-57
2023/10/03 12:16:07;;;;;;;3.15;0.30;;;16.80;99.90;;;;;;5046049;28;20040;-58
2023/10/03 12:18:33;;;;;;;3.95;0.28;;;16.70;99.90;;;;;;5043531;28;20048;-57
2023/10/03 12:20:59;;;;;;;5.13;0.35;;;16.50;99.90;;;;;;5045996;28;20044;-57
2023/10/03 12:23:24;;;;;;;3.35;0.57;;;16.40;99.90;;;;;;5022003;28;20069;-58
2023/10/03 12:25:50;;;;;;;3.30;0.40;;;16.40;99.90;;;;;;5045189;28;20090;-58
2023/10/03 12:28:17;;;;;;;2.22;0.57;;;16.30;99.90;;;;;;5042597;28;20044;-57
2023/10/03 12:30:43;;;;;;;3.30;0.60;;;16.30;99.90;;;;;;5043052;28;20049;-57
2023/10/03 12:33:16;;;;;;;2.40;0.40;;;16.20;99.90;;;;;;5042091;28;20067;-57
2023/10/03 12:35:42;;;;;;;2.85;0.55;;;16.20;99.90;;;;;;5037842;28;20044;-60
2023/10/03 12:38:10;;;;;;;4.72;0.70;;;16.10;99.90;;;;;;5047788;28;20032;-58
2023/10/03 12:40:36;;;;;;;3.10;0.88;;;16.00;99.90;;;;;;5044851;28;20036;-59
2023/10/03 12:43:01;;;;;;;2.53;0.98;;;16.00;99.90;;;;;;5049568;28;20419;-60
2023/10/03 12:45:28;;;;;;;3.50;0.80;;;15.90;99.90;;;;;;5041196;28;20462;-59
2023/10/03 12:47:54;;;;;;;5.93;0.70;;;15.80;99.90;;;;;;5045441;28;20044;-60
2023/10/03 12:50:25;;;;;;;5.07;1.05;;;15.70;99.90;;;;;;5046261;28;20040;-58
2023/10/03 12:52:55;;;;;;;3.50;0.82;;;15.70;99.90;;;;;;5048695;28;20464;-59
2023/10/03 12:55:25;;;;;;;3.78;1.00;;;15.70;99.90;;;;;;5026325;28;20225;-59